2J9

Quincy Municipal Airport

Quincy, Florida, USA
METAR K2J9 181415Z AUTO 14004KT 10SM OVC060 13/11 A3015 RMK AO2
Observed Flight Rules
Jan-18 @ 14:15 UTC (29 minutes ago) Visual Flight Rules
Wind Visibility Clouds
140° at 4 knots 10 miles
  • Overcast at 6,000' AGL
Temperatures Readings
Current 13°C / 55°F
Dewpoint 11°C / 52°F
Humidity 88%
Altimeter 30.15" Hg
Pressure 1021.02 hPa
Elevation 69
METAR K2J9 181415Z AUTO 14004KT 10SM OVC060 13/11 A3015 RMK AO2
Observed Flight Rules
Jan-18 @ 14:15 UTC
(29 minutes ago)
VFR
Wind Visibility
140° at 4 knots 10 miles
Clouds
  • Overcast at 6,000' AGL
Temperature Dewpoint
13°C / 55°F 11°C / 52°F
Humidity Altimeter Pressure
88% 30.15" Hg 1021.02 hPa